Bustamante, Texas
Current Conditions -  °F | °C
As of 12:55 PM on Thursday 30 Oct 2014 (Local Time) from KHBV Reporting Station
Scattered Clouds Scattered Clouds  
Wind Chill: 81°   Ceiling: Unl
Heat Index: 82°   Visibility: 10mi
Dew Point: 63°   Wind: 5mph
Humidity: 54%   Direction: 130°SE
Pressure: 30.1"   Gusts: NA
Location:  27.0695°N, 98.7494°W
Report Text: KHBV 301755Z AUTO 13004KT 10SM SCT034 27/17 A3010 RMK AO2 T02730172
Loading
Personal Weather Stations






























Interactive Weather Map
Tropical Storm Tracking
New forecast layout! Learn more

10-Day Weather Forecast

Advertisements
Track Severe Weather on mobile